sensor_id;sensor_type;location;lat;lon;timestamp;P1;durP1;ratioP1;P2;durP2;ratioP2
8704;SDS011;4389;41.932;25.904;2022-10-16T00:00:42;14.23;;;7.93;;
8704;SDS011;4389;41.932;25.904;2022-10-16T00:03:10;11.03;;;8.37;;
8704;SDS011;4389;41.932;25.904;2022-10-16T00:05:38;6.73;;;5.17;;
8704;SDS011;4389;41.932;25.904;2022-10-16T00:08:06;8.83;;;6.40;;
8704;SDS011;4389;41.932;25.904;2022-10-16T00:10:34;8.77;;;5.10;;
8704;SDS011;4389;41.932;25.904;2022-10-16T00:13:01;8.10;;;5.17;;
8704;SDS011;4389;41.932;25.904;2022-10-16T00:15:30;10.57;;;5.13;;
8704;SDS011;4389;41.932;25.904;2022-10-16T00:18:01;14.13;;;8.20;;
8704;SDS011;4389;41.932;25.904;2022-10-16T00:20:28;19.10;;;9.70;;
8704;SDS011;4389;41.932;25.904;2022-10-16T00:22:56;12.87;;;9.17;;
8704;SDS011;4389;41.932;25.904;2022-10-16T00:25:24;9.13;;;6.77;;
8704;SDS011;4389;41.932;25.904;2022-10-16T00:27:51;14.40;;;7.17;;
8704;SDS011;4389;41.932;25.904;2022-10-16T00:30:17;9.73;;;6.53;;
8704;SDS011;4389;41.932;25.904;2022-10-16T00:32:46;9.13;;;5.53;;
8704;SDS011;4389;41.932;25.904;2022-10-16T00:35:12;10.40;;;5.83;;
8704;SDS011;4389;41.932;25.904;2022-10-16T00:37:41;7.50;;;5.03;;
8704;SDS011;4389;41.932;25.904;2022-10-16T00:40:08;12.63;;;5.40;;
8704;SDS011;4389;41.932;25.904;2022-10-16T00:42:35;7.67;;;4.87;;
8704;SDS011;4389;41.932;25.904;2022-10-16T00:45:03;8.80;;;5.73;;
8704;SDS011;4389;41.932;25.904;2022-10-16T00:47:31;9.97;;;6.20;;
8704;SDS011;4389;41.932;25.904;2022-10-16T00:50:04;16.23;;;6.90;;
8704;SDS011;4389;41.932;25.904;2022-10-16T00:52:34;11.60;;;5.67;;
8704;SDS011;4389;41.932;25.904;2022-10-16T00:55:01;6.67;;;4.90;;
8704;SDS011;4389;41.932;25.904;2022-10-16T00:57:29;8.87;;;5.20;;
8704;SDS011;4389;41.932;25.904;2022-10-16T00:59:56;10.97;;;7.47;;
8704;SDS011;4389;41.932;25.904;2022-10-16T01:02:24;13.80;;;6.67;;
8704;SDS011;4389;41.932;25.904;2022-10-16T01:04:51;8.57;;;5.93;;
8704;SDS011;4389;41.932;25.904;2022-10-16T01:07:23;12.80;;;6.40;;
8704;SDS011;4389;41.932;25.904;2022-10-16T01:10:04;19.47;;;9.27;;
8704;SDS011;4389;41.932;25.904;2022-10-16T01:12:39;10.87;;;6.07;;
8704;SDS011;4389;41.932;25.904;2022-10-16T01:15:10;12.00;;;6.70;;
8704;SDS011;4389;41.932;25.904;2022-10-16T01:17:45;12.10;;;6.37;;
8704;SDS011;4389;41.932;25.904;2022-10-16T01:20:21;9.40;;;5.53;;
8704;SDS011;4389;41.932;25.904;2022-10-16T01:23:01;11.07;;;6.23;;
8704;SDS011;4389;41.932;25.904;2022-10-16T01:25:40;15.67;;;7.87;;
8704;SDS011;4389;41.932;25.904;2022-10-16T01:28:36;17.53;;;5.70;;
8704;SDS011;4389;41.932;25.904;2022-10-16T01:31:07;13.67;;;5.43;;
8704;SDS011;4389;41.932;25.904;2022-10-16T01:33:38;14.20;;;5.53;;
8704;SDS011;4389;41.932;25.904;2022-10-16T01:36:10;11.70;;;5.80;;
8704;SDS011;4389;41.932;25.904;2022-10-16T01:38:40;9.30;;;6.13;;
8704;SDS011;4389;41.932;25.904;2022-10-16T01:41:12;15.30;;;5.97;;
8704;SDS011;4389;41.932;25.904;2022-10-16T01:43:44;10.67;;;6.70;;
8704;SDS011;4389;41.932;25.904;2022-10-16T01:46:15;15.13;;;7.10;;
8704;SDS011;4389;41.932;25.904;2022-10-16T01:48:44;10.57;;;7.00;;
8704;SDS011;4389;41.932;25.904;2022-10-16T01:51:12;19.07;;;7.30;;
8704;SDS011;4389;41.932;25.904;2022-10-16T01:53:41;13.33;;;6.37;;
8704;SDS011;4389;41.932;25.904;2022-10-16T01:56:12;11.03;;;7.10;;
8704;SDS011;4389;41.932;25.904;2022-10-16T01:58:44;21.83;;;6.10;;
8704;SDS011;4389;41.932;25.904;2022-10-16T02:01:16;10.97;;;6.40;;
8704;SDS011;4389;41.932;25.904;2022-10-16T02:03:48;10.27;;;6.13;;
8704;SDS011;4389;41.932;25.904;2022-10-16T02:06:18;14.00;;;6.37;;
8704;SDS011;4389;41.932;25.904;2022-10-16T02:08:45;10.77;;;5.93;;
8704;SDS011;4389;41.932;25.904;2022-10-16T02:11:13;13.63;;;5.60;;
8704;SDS011;4389;41.932;25.904;2022-10-16T02:13:41;23.50;;;6.80;;
8704;SDS011;4389;41.932;25.904;2022-10-16T02:16:13;7.90;;;5.73;;
8704;SDS011;4389;41.932;25.904;2022-10-16T02:18:41;9.90;;;5.90;;
8704;SDS011;4389;41.932;25.904;2022-10-16T02:21:11;6.60;;;5.67;;
8704;SDS011;4389;41.932;25.904;2022-10-16T02:23:45;8.97;;;5.97;;
8704;SDS011;4389;41.932;25.904;2022-10-16T02:26:20;12.40;;;5.83;;
8704;SDS011;4389;41.932;25.904;2022-10-16T02:28:54;7.50;;;5.53;;
8704;SDS011;4389;41.932;25.904;2022-10-16T02:31:28;11.70;;;6.80;;
8704;SDS011;4389;41.932;25.904;2022-10-16T02:33:59;8.87;;;6.53;;
8704;SDS011;4389;41.932;25.904;2022-10-16T02:36:27;10.60;;;6.23;;
8704;SDS011;4389;41.932;25.904;2022-10-16T02:38:55;9.73;;;6.40;;
8704;SDS011;4389;41.932;25.904;2022-10-16T02:41:22;17.47;;;7.30;;
8704;SDS011;4389;41.932;25.904;2022-10-16T02:43:50;12.77;;;6.53;;
8704;SDS011;4389;41.932;25.904;2022-10-16T02:46:17;11.27;;;6.53;;
8704;SDS011;4389;41.932;25.904;2022-10-16T02:48:46;9.47;;;6.30;;
8704;SDS011;4389;41.932;25.904;2022-10-16T02:51:12;9.57;;;6.40;;
8704;SDS011;4389;41.932;25.904;2022-10-16T02:53:39;9.03;;;6.93;;
8704;SDS011;4389;41.932;25.904;2022-10-16T02:56:06;8.27;;;6.97;;
8704;SDS011;4389;41.932;25.904;2022-10-16T02:58:33;11.87;;;7.13;;
8704;SDS011;4389;41.932;25.904;2022-10-16T03:01:00;15.67;;;7.13;;
8704;SDS011;4389;41.932;25.904;2022-10-16T03:03:27;11.53;;;6.93;;
8704;SDS011;4389;41.932;25.904;2022-10-16T03:05:55;12.10;;;5.97;;
8704;SDS011;4389;41.932;25.904;2022-10-16T03:08:22;12.13;;;7.23;;
8704;SDS011;4389;41.932;25.904;2022-10-16T03:10:50;14.50;;;6.90;;
8704;SDS011;4389;41.932;25.904;2022-10-16T03:13:17;10.87;;;6.97;;
8704;SDS011;4389;41.932;25.904;2022-10-16T03:15:45;12.50;;;7.13;;
8704;SDS011;4389;41.932;25.904;2022-10-16T03:18:12;11.30;;;7.00;;
8704;SDS011;4389;41.932;25.904;2022-10-16T03:20:39;9.03;;;6.50;;
8704;SDS011;4389;41.932;25.904;2022-10-16T03:23:07;12.03;;;7.30;;
8704;SDS011;4389;41.932;25.904;2022-10-16T03:25:34;14.33;;;6.13;;
8704;SDS011;4389;41.932;25.904;2022-10-16T03:28:01;8.07;;;6.20;;
8704;SDS011;4389;41.932;25.904;2022-10-16T03:30:28;9.27;;;7.10;;
8704;SDS011;4389;41.932;25.904;2022-10-16T03:32:55;11.03;;;6.90;;
8704;SDS011;4389;41.932;25.904;2022-10-16T03:35:22;12.53;;;6.37;;
8704;SDS011;4389;41.932;25.904;2022-10-16T03:37:50;12.27;;;6.47;;
8704;SDS011;4389;41.932;25.904;2022-10-16T03:40:19;13.20;;;6.83;;
8704;SDS011;4389;41.932;25.904;2022-10-16T03:42:46;8.47;;;6.03;;
8704;SDS011;4389;41.932;25.904;2022-10-16T03:45:12;9.57;;;6.43;;
8704;SDS011;4389;41.932;25.904;2022-10-16T03:47:39;9.23;;;6.53;;
8704;SDS011;4389;41.932;25.904;2022-10-16T03:50:06;11.77;;;7.30;;
8704;SDS011;4389;41.932;25.904;2022-10-16T03:52:34;12.03;;;7.03;;
8704;SDS011;4389;41.932;25.904;2022-10-16T03:55:01;9.73;;;8.00;;
8704;SDS011;4389;41.932;25.904;2022-10-16T03:57:29;9.13;;;6.70;;
8704;SDS011;4389;41.932;25.904;2022-10-16T03:59:55;12.40;;;7.20;;
8704;SDS011;4389;41.932;25.904;2022-10-16T04:02:22;16.47;;;7.70;;
8704;SDS011;4389;41.932;25.904;2022-10-16T04:04:49;13.83;;;7.23;;
8704;SDS011;4389;41.932;25.904;2022-10-16T04:07:16;11.47;;;6.77;;
8704;SDS011;4389;41.932;25.904;2022-10-16T04:09:43;7.70;;;6.30;;
8704;SDS011;4389;41.932;25.904;2022-10-16T04:12:10;12.60;;;6.60;;
8704;SDS011;4389;41.932;25.904;2022-10-16T04:14:38;11.47;;;7.43;;
8704;SDS011;4389;41.932;25.904;2022-10-16T04:17:05;10.70;;;7.93;;
8704;SDS011;4389;41.932;25.904;2022-10-16T04:19:31;9.63;;;8.13;;
8704;SDS011;4389;41.932;25.904;2022-10-16T04:21:58;8.73;;;6.87;;
8704;SDS011;4389;41.932;25.904;2022-10-16T04:24:25;8.23;;;6.30;;
8704;SDS011;4389;41.932;25.904;2022-10-16T04:26:52;13.23;;;7.30;;
8704;SDS011;4389;41.932;25.904;2022-10-16T04:29:19;10.50;;;7.27;;
8704;SDS011;4389;41.932;25.904;2022-10-16T04:31:47;11.40;;;7.47;;
8704;SDS011;4389;41.932;25.904;2022-10-16T04:34:14;8.20;;;7.30;;
8704;SDS011;4389;41.932;25.904;2022-10-16T04:36:41;16.87;;;7.37;;
8704;SDS011;4389;41.932;25.904;2022-10-16T04:39:07;9.03;;;6.73;;
8704;SDS011;4389;41.932;25.904;2022-10-16T04:41:34;11.00;;;7.17;;
8704;SDS011;4389;41.932;25.904;2022-10-16T04:44:01;15.23;;;7.37;;
8704;SDS011;4389;41.932;25.904;2022-10-16T04:46:28;13.67;;;7.30;;
8704;SDS011;4389;41.932;25.904;2022-10-16T04:48:56;14.23;;;7.63;;
8704;SDS011;4389;41.932;25.904;2022-10-16T04:51:23;19.70;;;7.83;;
8704;SDS011;4389;41.932;25.904;2022-10-16T04:53:53;9.87;;;6.70;;
8704;SDS011;4389;41.932;25.904;2022-10-16T04:56:20;10.40;;;6.90;;
8704;SDS011;4389;41.932;25.904;2022-10-16T04:58:47;9.77;;;5.87;;
8704;SDS011;4389;41.932;25.904;2022-10-16T05:01:14;12.07;;;6.80;;
8704;SDS011;4389;41.932;25.904;2022-10-16T05:03:41;8.27;;;6.50;;
8704;SDS011;4389;41.932;25.904;2022-10-16T05:06:10;18.73;;;7.17;;
8704;SDS011;4389;41.932;25.904;2022-10-16T05:08:37;11.33;;;7.13;;
8704;SDS011;4389;41.932;25.904;2022-10-16T05:11:04;12.10;;;7.80;;
8704;SDS011;4389;41.932;25.904;2022-10-16T05:13:31;9.00;;;6.70;;
8704;SDS011;4389;41.932;25.904;2022-10-16T05:15:58;11.17;;;7.20;;
8704;SDS011;4389;41.932;25.904;2022-10-16T05:18:24;13.07;;;7.80;;
8704;SDS011;4389;41.932;25.904;2022-10-16T05:20:51;12.87;;;7.87;;
8704;SDS011;4389;41.932;25.904;2022-10-16T05:23:19;15.90;;;8.23;;
8704;SDS011;4389;41.932;25.904;2022-10-16T05:25:51;10.67;;;8.30;;
8704;SDS011;4389;41.932;25.904;2022-10-16T05:28:19;12.10;;;8.00;;
8704;SDS011;4389;41.932;25.904;2022-10-16T05:30:46;12.50;;;8.03;;
8704;SDS011;4389;41.932;25.904;2022-10-16T05:33:13;10.33;;;8.17;;
8704;SDS011;4389;41.932;25.904;2022-10-16T05:35:40;17.87;;;10.10;;
8704;SDS011;4389;41.932;25.904;2022-10-16T05:38:06;16.83;;;11.50;;
8704;SDS011;4389;41.932;25.904;2022-10-16T05:40:35;19.27;;;11.73;;
8704;SDS011;4389;41.932;25.904;2022-10-16T05:43:01;18.10;;;12.50;;
8704;SDS011;4389;41.932;25.904;2022-10-16T05:45:28;14.43;;;11.47;;
8704;SDS011;4389;41.932;25.904;2022-10-16T05:47:55;15.80;;;11.53;;
8704;SDS011;4389;41.932;25.904;2022-10-16T05:50:22;17.30;;;10.00;;
8704;SDS011;4389;41.932;25.904;2022-10-16T05:52:49;17.93;;;10.60;;
8704;SDS011;4389;41.932;25.904;2022-10-16T05:55:15;14.00;;;9.50;;
8704;SDS011;4389;41.932;25.904;2022-10-16T05:57:44;18.40;;;8.20;;
8704;SDS011;4389;41.932;25.904;2022-10-16T06:00:11;10.17;;;8.13;;
8704;SDS011;4389;41.932;25.904;2022-10-16T06:02:39;11.17;;;8.13;;
8704;SDS011;4389;41.932;25.904;2022-10-16T06:05:06;12.37;;;8.07;;
8704;SDS011;4389;41.932;25.904;2022-10-16T06:07:33;12.67;;;7.97;;
8704;SDS011;4389;41.932;25.904;2022-10-16T06:10:02;26.40;;;8.17;;
8704;SDS011;4389;41.932;25.904;2022-10-16T06:12:29;10.70;;;7.20;;
8704;SDS011;4389;41.932;25.904;2022-10-16T06:14:57;14.43;;;7.93;;
8704;SDS011;4389;41.932;25.904;2022-10-16T06:17:24;9.20;;;7.40;;
8704;SDS011;4389;41.932;25.904;2022-10-16T06:19:51;12.03;;;7.70;;
8704;SDS011;4389;41.932;25.904;2022-10-16T06:22:18;16.17;;;7.67;;
8704;SDS011;4389;41.932;25.904;2022-10-16T06:24:45;15.83;;;8.13;;
8704;SDS011;4389;41.932;25.904;2022-10-16T06:27:12;9.83;;;7.63;;
8704;SDS011;4389;41.932;25.904;2022-10-16T06:29:39;10.63;;;7.50;;
8704;SDS011;4389;41.932;25.904;2022-10-16T06:32:09;11.53;;;8.10;;
8704;SDS011;4389;41.932;25.904;2022-10-16T06:34:36;9.53;;;8.10;;
8704;SDS011;4389;41.932;25.904;2022-10-16T06:37:05;9.63;;;7.23;;
8704;SDS011;4389;41.932;25.904;2022-10-16T06:39:32;10.80;;;7.63;;
8704;SDS011;4389;41.932;25.904;2022-10-16T06:41:58;10.30;;;7.60;;
8704;SDS011;4389;41.932;25.904;2022-10-16T06:44:25;8.23;;;7.43;;
8704;SDS011;4389;41.932;25.904;2022-10-16T06:46:53;9.47;;;7.03;;
8704;SDS011;4389;41.932;25.904;2022-10-16T06:49:22;11.40;;;7.80;;
8704;SDS011;4389;41.932;25.904;2022-10-16T06:51:49;10.10;;;7.13;;
8704;SDS011;4389;41.932;25.904;2022-10-16T06:54:15;10.63;;;6.90;;
8704;SDS011;4389;41.932;25.904;2022-10-16T06:56:43;10.80;;;6.87;;
8704;SDS011;4389;41.932;25.904;2022-10-16T06:59:10;14.77;;;7.97;;
8704;SDS011;4389;41.932;25.904;2022-10-16T07:01:37;14.53;;;7.63;;
8704;SDS011;4389;41.932;25.904;2022-10-16T07:04:04;10.50;;;8.13;;
8704;SDS011;4389;41.932;25.904;2022-10-16T07:06:32;14.23;;;7.90;;
8704;SDS011;4389;41.932;25.904;2022-10-16T07:09:01;7.97;;;6.67;;
8704;SDS011;4389;41.932;25.904;2022-10-16T07:11:29;12.97;;;6.53;;
8704;SDS011;4389;41.932;25.904;2022-10-16T07:13:55;12.43;;;9.13;;
8704;SDS011;4389;41.932;25.904;2022-10-16T07:16:23;12.50;;;6.53;;
8704;SDS011;4389;41.932;25.904;2022-10-16T07:18:51;13.33;;;6.77;;
8704;SDS011;4389;41.932;25.904;2022-10-16T07:21:23;9.73;;;6.00;;
8704;SDS011;4389;41.932;25.904;2022-10-16T07:23:53;11.97;;;5.63;;
8704;SDS011;4389;41.932;25.904;2022-10-16T07:26:21;10.10;;;6.40;;
8704;SDS011;4389;41.932;25.904;2022-10-16T07:28:49;8.83;;;5.90;;
8704;SDS011;4389;41.932;25.904;2022-10-16T07:31:17;12.43;;;5.63;;
8704;SDS011;4389;41.932;25.904;2022-10-16T07:33:45;8.83;;;5.73;;
8704;SDS011;4389;41.932;25.904;2022-10-16T07:36:13;13.43;;;6.10;;
8704;SDS011;4389;41.932;25.904;2022-10-16T07:38:41;6.73;;;5.20;;
8704;SDS011;4389;41.932;25.904;2022-10-16T07:41:11;11.67;;;5.80;;
8704;SDS011;4389;41.932;25.904;2022-10-16T07:43:39;10.20;;;5.90;;
8704;SDS011;4389;41.932;25.904;2022-10-16T07:46:06;9.93;;;5.83;;
8704;SDS011;4389;41.932;25.904;2022-10-16T07:48:33;14.60;;;6.37;;
8704;SDS011;4389;41.932;25.904;2022-10-16T07:51:01;14.27;;;6.43;;
8704;SDS011;4389;41.932;25.904;2022-10-16T07:53:30;16.00;;;6.70;;
8704;SDS011;4389;41.932;25.904;2022-10-16T07:55:57;16.17;;;7.33;;
8704;SDS011;4389;41.932;25.904;2022-10-16T07:58:26;15.07;;;5.87;;
8704;SDS011;4389;41.932;25.904;2022-10-16T08:00:54;14.83;;;6.23;;
8704;SDS011;4389;41.932;25.904;2022-10-16T08:03:21;13.60;;;6.77;;
8704;SDS011;4389;41.932;25.904;2022-10-16T08:05:48;14.90;;;6.10;;
8704;SDS011;4389;41.932;25.904;2022-10-16T08:08:16;9.83;;;6.37;;
8704;SDS011;4389;41.932;25.904;2022-10-16T08:10:44;21.83;;;7.03;;
8704;SDS011;4389;41.932;25.904;2022-10-16T08:13:11;17.20;;;6.70;;
8704;SDS011;4389;41.932;25.904;2022-10-16T08:15:41;13.80;;;5.90;;
8704;SDS011;4389;41.932;25.904;2022-10-16T08:18:09;13.93;;;5.43;;
8704;SDS011;4389;41.932;25.904;2022-10-16T08:20:36;14.90;;;6.43;;
8704;SDS011;4389;41.932;25.904;2022-10-16T08:23:03;11.23;;;5.70;;
8704;SDS011;4389;41.932;25.904;2022-10-16T08:25:30;8.83;;;5.23;;
8704;SDS011;4389;41.932;25.904;2022-10-16T08:27:57;11.23;;;5.20;;
8704;SDS011;4389;41.932;25.904;2022-10-16T08:30:24;14.27;;;5.23;;
8704;SDS011;4389;41.932;25.904;2022-10-16T08:32:52;12.83;;;5.73;;
8704;SDS011;4389;41.932;25.904;2022-10-16T08:35:19;10.73;;;4.90;;
8704;SDS011;4389;41.932;25.904;2022-10-16T08:37:46;8.27;;;5.23;;
8704;SDS011;4389;41.932;25.904;2022-10-16T08:40:16;9.63;;;5.60;;
8704;SDS011;4389;41.932;25.904;2022-10-16T08:45:51;13.37;;;6.33;;
8704;SDS011;4389;41.932;25.904;2022-10-16T08:48:41;7.13;;;5.30;;
8704;SDS011;4389;41.932;25.904;2022-10-16T08:51:12;8.33;;;5.03;;
8704;SDS011;4389;41.932;25.904;2022-10-16T08:53:46;8.57;;;4.57;;
8704;SDS011;4389;41.932;25.904;2022-10-16T08:56:20;8.17;;;4.07;;
8704;SDS011;4389;41.932;25.904;2022-10-16T08:58:47;6.40;;;3.97;;
8704;SDS011;4389;41.932;25.904;2022-10-16T09:01:16;9.77;;;4.07;;
8704;SDS011;4389;41.932;25.904;2022-10-16T09:04:04;14.20;;;4.40;;
8704;SDS011;4389;41.932;25.904;2022-10-16T09:06:50;7.03;;;4.00;;
8704;SDS011;4389;41.932;25.904;2022-10-16T09:09:25;9.70;;;3.90;;
8704;SDS011;4389;41.932;25.904;2022-10-16T09:12:03;13.77;;;4.50;;
8704;SDS011;4389;41.932;25.904;2022-10-16T09:14:39;10.03;;;4.07;;
8704;SDS011;4389;41.932;25.904;2022-10-16T09:17:20;5.07;;;3.80;;
8704;SDS011;4389;41.932;25.904;2022-10-16T09:19:58;6.80;;;4.03;;
8704;SDS011;4389;41.932;25.904;2022-10-16T09:22:38;10.17;;;4.60;;
8704;SDS011;4389;41.932;25.904;2022-10-16T09:25:10;9.60;;;3.87;;
8704;SDS011;4389;41.932;25.904;2022-10-16T09:27:39;7.20;;;4.00;;
8704;SDS011;4389;41.932;25.904;2022-10-16T09:30:10;7.07;;;3.47;;
8704;SDS011;4389;41.932;25.904;2022-10-16T09:32:39;9.27;;;3.67;;
8704;SDS011;4389;41.932;25.904;2022-10-16T09:35:13;9.00;;;4.10;;
8704;SDS011;4389;41.932;25.904;2022-10-16T09:37:42;14.97;;;4.10;;
8704;SDS011;4389;41.932;25.904;2022-10-16T09:40:12;7.63;;;4.60;;
8704;SDS011;4389;41.932;25.904;2022-10-16T09:42:40;5.27;;;3.73;;
8704;SDS011;4389;41.932;25.904;2022-10-16T09:45:19;4.80;;;3.27;;
8704;SDS011;4389;41.932;25.904;2022-10-16T09:47:47;6.13;;;3.50;;
8704;SDS011;4389;41.932;25.904;2022-10-16T09:50:22;13.13;;;4.20;;
8704;SDS011;4389;41.932;25.904;2022-10-16T09:53:02;8.03;;;3.70;;
8704;SDS011;4389;41.932;25.904;2022-10-16T09:55:30;8.83;;;3.77;;
8704;SDS011;4389;41.932;25.904;2022-10-16T09:57:57;6.03;;;3.87;;
8704;SDS011;4389;41.932;25.904;2022-10-16T10:00:24;10.47;;;3.93;;
8704;SDS011;4389;41.932;25.904;2022-10-16T10:02:51;8.80;;;4.37;;
8704;SDS011;4389;41.932;25.904;2022-10-16T10:05:22;7.37;;;3.07;;
8704;SDS011;4389;41.932;25.904;2022-10-16T10:07:54;8.13;;;3.87;;
8704;SDS011;4389;41.932;25.904;2022-10-16T10:10:23;8.17;;;3.90;;
8704;SDS011;4389;41.932;25.904;2022-10-16T10:12:51;8.20;;;3.30;;
8704;SDS011;4389;41.932;25.904;2022-10-16T10:15:18;6.00;;;3.00;;
8704;SDS011;4389;41.932;25.904;2022-10-16T10:17:47;5.07;;;3.53;;
8704;SDS011;4389;41.932;25.904;2022-10-16T10:20:23;7.47;;;3.20;;
8704;SDS011;4389;41.932;25.904;2022-10-16T10:22:53;8.47;;;3.20;;
8704;SDS011;4389;41.932;25.904;2022-10-16T10:25:34;7.20;;;2.90;;
8704;SDS011;4389;41.932;25.904;2022-10-16T10:28:24;5.43;;;2.80;;
8704;SDS011;4389;41.932;25.904;2022-10-16T10:31:06;8.13;;;2.90;;
8704;SDS011;4389;41.932;25.904;2022-10-16T10:33:41;5.77;;;2.87;;
8704;SDS011;4389;41.932;25.904;2022-10-16T10:36:19;9.57;;;3.20;;
8704;SDS011;4389;41.932;25.904;2022-10-16T10:38:54;9.67;;;2.93;;
8704;SDS011;4389;41.932;25.904;2022-10-16T10:47:31;3.17;;;2.60;;
8704;SDS011;4389;41.932;25.904;2022-10-16T10:50:12;10.80;;;3.40;;
8704;SDS011;4389;41.932;25.904;2022-10-16T10:52:47;3.77;;;2.57;;
8704;SDS011;4389;41.932;25.904;2022-10-16T10:55:26;5.87;;;2.87;;
8704;SDS011;4389;41.932;25.904;2022-10-16T10:58:12;7.73;;;2.90;;
8704;SDS011;4389;41.932;25.904;2022-10-16T11:01:00;3.30;;;2.73;;
8704;SDS011;4389;41.932;25.904;2022-10-16T11:06:34;5.67;;;3.20;;
8704;SDS011;4389;41.932;25.904;2022-10-16T11:09:09;4.73;;;2.50;;
8704;SDS011;4389;41.932;25.904;2022-10-16T11:11:40;5.67;;;2.63;;
8704;SDS011;4389;41.932;25.904;2022-10-16T11:14:13;6.00;;;2.80;;
8704;SDS011;4389;41.932;25.904;2022-10-16T11:16:43;7.80;;;3.30;;
8704;SDS011;4389;41.932;25.904;2022-10-16T11:19:20;8.73;;;3.17;;
8704;SDS011;4389;41.932;25.904;2022-10-16T11:22:00;3.67;;;2.33;;
8704;SDS011;4389;41.932;25.904;2022-10-16T11:24:34;5.33;;;3.13;;
8704;SDS011;4389;41.932;25.904;2022-10-16T11:27:08;5.40;;;2.97;;
8704;SDS011;4389;41.932;25.904;2022-10-16T11:29:41;5.97;;;2.83;;
8704;SDS011;4389;41.932;25.904;2022-10-16T11:32:18;4.23;;;2.63;;
8704;SDS011;4389;41.932;25.904;2022-10-16T11:34:49;3.90;;;2.43;;
8704;SDS011;4389;41.932;25.904;2022-10-16T11:37:21;3.10;;;2.57;;
8704;SDS011;4389;41.932;25.904;2022-10-16T11:39:54;5.07;;;2.87;;
8704;SDS011;4389;41.932;25.904;2022-10-16T11:42:30;10.63;;;3.03;;
8704;SDS011;4389;41.932;25.904;2022-10-16T11:45:04;5.53;;;3.60;;
8704;SDS011;4389;41.932;25.904;2022-10-16T11:47:44;4.30;;;2.73;;
8704;SDS011;4389;41.932;25.904;2022-10-16T11:50:18;5.07;;;2.77;;
8704;SDS011;4389;41.932;25.904;2022-10-16T11:52:52;24.43;;;4.80;;
8704;SDS011;4389;41.932;25.904;2022-10-16T11:55:26;3.53;;;2.70;;
8704;SDS011;4389;41.932;25.904;2022-10-16T11:57:59;6.63;;;2.90;;
8704;SDS011;4389;41.932;25.904;2022-10-16T12:00:30;8.37;;;2.60;;
8704;SDS011;4389;41.932;25.904;2022-10-16T12:03:05;9.83;;;3.17;;
8704;SDS011;4389;41.932;25.904;2022-10-16T12:05:51;2.70;;;2.40;;
8704;SDS011;4389;41.932;25.904;2022-10-16T12:08:25;3.50;;;2.40;;
8704;SDS011;4389;41.932;25.904;2022-10-16T12:11:03;5.93;;;3.07;;
8704;SDS011;4389;41.932;25.904;2022-10-16T12:13:34;11.33;;;3.73;;
8704;SDS011;4389;41.932;25.904;2022-10-16T12:16:06;5.57;;;2.63;;
8704;SDS011;4389;41.932;25.904;2022-10-16T12:18:46;5.93;;;3.13;;
8704;SDS011;4389;41.932;25.904;2022-10-16T12:21:15;4.90;;;3.00;;
8704;SDS011;4389;41.932;25.904;2022-10-16T12:23:47;4.93;;;2.40;;
8704;SDS011;4389;41.932;25.904;2022-10-16T12:26:25;7.97;;;2.77;;
8704;SDS011;4389;41.932;25.904;2022-10-16T12:28:53;6.57;;;2.83;;
8704;SDS011;4389;41.932;25.904;2022-10-16T12:31:21;9.17;;;3.50;;
8704;SDS011;4389;41.932;25.904;2022-10-16T12:33:58;7.33;;;2.80;;
8704;SDS011;4389;41.932;25.904;2022-10-16T12:36:27;6.30;;;3.00;;
8704;SDS011;4389;41.932;25.904;2022-10-16T12:38:57;3.57;;;2.80;;
8704;SDS011;4389;41.932;25.904;2022-10-16T12:41:27;4.03;;;2.60;;
8704;SDS011;4389;41.932;25.904;2022-10-16T12:43:56;4.87;;;2.73;;
8704;SDS011;4389;41.932;25.904;2022-10-16T12:46:34;5.23;;;2.93;;
8704;SDS011;4389;41.932;25.904;2022-10-16T12:49:22;3.07;;;2.60;;
8704;SDS011;4389;41.932;25.904;2022-10-16T12:51:56;5.83;;;2.83;;
8704;SDS011;4389;41.932;25.904;2022-10-16T12:54:25;5.03;;;2.40;;
8704;SDS011;4389;41.932;25.904;2022-10-16T12:57:03;4.00;;;2.50;;
8704;SDS011;4389;41.932;25.904;2022-10-16T12:59:42;4.03;;;2.90;;
8704;SDS011;4389;41.932;25.904;2022-10-16T13:02:19;3.33;;;2.50;;
8704;SDS011;4389;41.932;25.904;2022-10-16T13:05:14;6.53;;;2.67;;
8704;SDS011;4389;41.932;25.904;2022-10-16T13:07:55;3.20;;;2.47;;
8704;SDS011;4389;41.932;25.904;2022-10-16T13:10:32;4.63;;;2.50;;
8704;SDS011;4389;41.932;25.904;2022-10-16T13:13:12;4.67;;;2.73;;
8704;SDS011;4389;41.932;25.904;2022-10-16T13:15:59;3.33;;;2.70;;
8704;SDS011;4389;41.932;25.904;2022-10-16T13:18:40;6.50;;;2.60;;
8704;SDS011;4389;41.932;25.904;2022-10-16T13:21:19;4.50;;;2.70;;
8704;SDS011;4389;41.932;25.904;2022-10-16T13:23:59;3.67;;;2.47;;
8704;SDS011;4389;41.932;25.904;2022-10-16T13:26:36;4.67;;;2.63;;
8704;SDS011;4389;41.932;25.904;2022-10-16T13:29:11;6.50;;;2.37;;
8704;SDS011;4389;41.932;25.904;2022-10-16T13:31:39;8.93;;;2.87;;
8704;SDS011;4389;41.932;25.904;2022-10-16T13:34:10;3.53;;;2.50;;
8704;SDS011;4389;41.932;25.904;2022-10-16T13:36:42;3.17;;;2.40;;
8704;SDS011;4389;41.932;25.904;2022-10-16T13:39:12;4.63;;;2.60;;
8704;SDS011;4389;41.932;25.904;2022-10-16T13:41:42;3.43;;;2.70;;
8704;SDS011;4389;41.932;25.904;2022-10-16T13:44:13;3.80;;;2.80;;
8704;SDS011;4389;41.932;25.904;2022-10-16T13:46:44;6.00;;;3.17;;
8704;SDS011;4389;41.932;25.904;2022-10-16T13:49:13;4.33;;;2.57;;
8704;SDS011;4389;41.932;25.904;2022-10-16T13:51:40;4.93;;;2.70;;
8704;SDS011;4389;41.932;25.904;2022-10-16T13:54:09;2.87;;;2.20;;
8704;SDS011;4389;41.932;25.904;2022-10-16T13:56:38;10.47;;;3.10;;
8704;SDS011;4389;41.932;25.904;2022-10-16T13:59:05;5.13;;;2.90;;
8704;SDS011;4389;41.932;25.904;2022-10-16T14:01:49;5.13;;;2.67;;
8704;SDS011;4389;41.932;25.904;2022-10-16T14:04:19;3.80;;;2.50;;
8704;SDS011;4389;41.932;25.904;2022-10-16T14:06:46;3.50;;;2.30;;
8704;SDS011;4389;41.932;25.904;2022-10-16T14:09:18;6.00;;;2.33;;
8704;SDS011;4389;41.932;25.904;2022-10-16T14:11:50;6.57;;;2.30;;
8704;SDS011;4389;41.932;25.904;2022-10-16T14:14:20;4.20;;;2.30;;
8704;SDS011;4389;41.932;25.904;2022-10-16T14:16:47;3.50;;;2.30;;
8704;SDS011;4389;41.932;25.904;2022-10-16T14:19:18;4.97;;;2.13;;
8704;SDS011;4389;41.932;25.904;2022-10-16T14:21:47;3.17;;;2.23;;
8704;SDS011;4389;41.932;25.904;2022-10-16T14:24:21;2.87;;;2.23;;
8704;SDS011;4389;41.932;25.904;2022-10-16T14:26:52;4.23;;;2.23;;
8704;SDS011;4389;41.932;25.904;2022-10-16T14:29:21;3.50;;;2.30;;
8704;SDS011;4389;41.932;25.904;2022-10-16T14:31:55;5.73;;;2.13;;
8704;SDS011;4389;41.932;25.904;2022-10-16T14:34:25;4.33;;;2.43;;
8704;SDS011;4389;41.932;25.904;2022-10-16T14:36:54;2.67;;;1.93;;
8704;SDS011;4389;41.932;25.904;2022-10-16T14:39:22;6.03;;;2.50;;
8704;SDS011;4389;41.932;25.904;2022-10-16T14:41:51;17.73;;;3.00;;
8704;SDS011;4389;41.932;25.904;2022-10-16T14:44:22;10.03;;;2.60;;
8704;SDS011;4389;41.932;25.904;2022-10-16T14:46:57;4.20;;;2.30;;
8704;SDS011;4389;41.932;25.904;2022-10-16T14:49:27;3.57;;;2.20;;
8704;SDS011;4389;41.932;25.904;2022-10-16T14:51:54;4.37;;;2.40;;
8704;SDS011;4389;41.932;25.904;2022-10-16T14:54:21;7.57;;;2.40;;
8704;SDS011;4389;41.932;25.904;2022-10-16T14:56:49;3.20;;;2.20;;
8704;SDS011;4389;41.932;25.904;2022-10-16T14:59:19;3.07;;;2.33;;
8704;SDS011;4389;41.932;25.904;2022-10-16T15:01:51;4.33;;;2.73;;
8704;SDS011;4389;41.932;25.904;2022-10-16T15:04:18;5.07;;;2.63;;
8704;SDS011;4389;41.932;25.904;2022-10-16T15:06:46;5.20;;;2.30;;
8704;SDS011;4389;41.932;25.904;2022-10-16T15:09:13;4.07;;;2.53;;
8704;SDS011;4389;41.932;25.904;2022-10-16T15:11:40;4.40;;;2.90;;
8704;SDS011;4389;41.932;25.904;2022-10-16T15:14:08;4.13;;;2.67;;
8704;SDS011;4389;41.932;25.904;2022-10-16T15:16:38;4.07;;;2.63;;
8704;SDS011;4389;41.932;25.904;2022-10-16T15:19:04;6.20;;;2.57;;
8704;SDS011;4389;41.932;25.904;2022-10-16T15:21:32;8.13;;;2.80;;
8704;SDS011;4389;41.932;25.904;2022-10-16T15:24:00;5.13;;;2.70;;
8704;SDS011;4389;41.932;25.904;2022-10-16T15:26:28;20.47;;;4.00;;